sensor_id;sensor_type;location;lat;lon;timestamp;P1;durP1;ratioP1;P2;durP2;ratioP2
52210;SDS011;38179;52.756;6.906;2023-06-10T00:02:11;20.80;;;18.90;;
52210;SDS011;38179;52.756;6.906;2023-06-10T00:04:37;21.02;;;19.02;;
52210;SDS011;38179;52.756;6.906;2023-06-10T00:07:03;20.88;;;19.13;;
52210;SDS011;38179;52.756;6.906;2023-06-10T00:09:36;20.83;;;18.83;;
52210;SDS011;38179;52.756;6.906;2023-06-10T00:12:03;20.35;;;18.55;;
52210;SDS011;38179;52.756;6.906;2023-06-10T00:14:38;20.55;;;18.83;;
52210;SDS011;38179;52.756;6.906;2023-06-10T00:17:08;20.42;;;18.63;;
52210;SDS011;38179;52.756;6.906;2023-06-10T00:19:37;21.42;;;19.30;;
52210;SDS011;38179;52.756;6.906;2023-06-10T00:22:07;20.98;;;18.98;;
52210;SDS011;38179;52.756;6.906;2023-06-10T00:24:34;20.83;;;18.92;;
52210;SDS011;38179;52.756;6.906;2023-06-10T00:27:00;20.38;;;18.48;;
52210;SDS011;38179;52.756;6.906;2023-06-10T00:29:26;21.00;;;19.10;;
52210;SDS011;38179;52.756;6.906;2023-06-10T00:31:52;20.85;;;18.90;;
52210;SDS011;38179;52.756;6.906;2023-06-10T00:34:22;21.77;;;19.77;;
52210;SDS011;38179;52.756;6.906;2023-06-10T00:36:48;20.60;;;18.85;;
52210;SDS011;38179;52.756;6.906;2023-06-10T00:39:15;21.42;;;19.45;;
52210;SDS011;38179;52.756;6.906;2023-06-10T00:41:42;20.67;;;18.75;;
52210;SDS011;38179;52.756;6.906;2023-06-10T00:44:07;20.80;;;19.00;;
52210;SDS011;38179;52.756;6.906;2023-06-10T00:46:33;20.60;;;18.70;;
52210;SDS011;38179;52.756;6.906;2023-06-10T00:49:00;20.55;;;18.48;;
52210;SDS011;38179;52.756;6.906;2023-06-10T00:51:26;20.77;;;19.00;;
52210;SDS011;38179;52.756;6.906;2023-06-10T00:53:52;20.80;;;19.08;;
52210;SDS011;38179;52.756;6.906;2023-06-10T00:56:19;20.90;;;18.77;;
52210;SDS011;38179;52.756;6.906;2023-06-10T00:58:46;20.70;;;18.80;;
52210;SDS011;38179;52.756;6.906;2023-06-10T01:01:13;19.95;;;18.33;;
52210;SDS011;38179;52.756;6.906;2023-06-10T01:03:39;20.80;;;18.80;;
52210;SDS011;38179;52.756;6.906;2023-06-10T01:09:13;21.10;;;19.40;;
52210;SDS011;38179;52.756;6.906;2023-06-10T01:11:47;21.27;;;19.33;;
52210;SDS011;38179;52.756;6.906;2023-06-10T01:14:33;20.73;;;18.90;;
52210;SDS011;38179;52.756;6.906;2023-06-10T01:17:00;21.25;;;19.02;;
52210;SDS011;38179;52.756;6.906;2023-06-10T01:19:28;21.23;;;19.02;;
52210;SDS011;38179;52.756;6.906;2023-06-10T01:21:56;21.23;;;18.98;;
52210;SDS011;38179;52.756;6.906;2023-06-10T01:24:26;20.83;;;18.85;;
52210;SDS011;38179;52.756;6.906;2023-06-10T01:26:53;20.73;;;18.85;;
52210;SDS011;38179;52.756;6.906;2023-06-10T01:29:42;20.90;;;18.85;;
52210;SDS011;38179;52.756;6.906;2023-06-10T01:34:46;19.73;;;18.02;;
52210;SDS011;38179;52.756;6.906;2023-06-10T01:37:15;20.90;;;18.77;;
52210;SDS011;38179;52.756;6.906;2023-06-10T01:39:45;19.90;;;18.08;;
52210;SDS011;38179;52.756;6.906;2023-06-10T01:42:12;21.33;;;19.33;;
52210;SDS011;38179;52.756;6.906;2023-06-10T01:44:41;19.52;;;17.92;;
52210;SDS011;38179;52.756;6.906;2023-06-10T01:47:07;20.10;;;18.45;;
52210;SDS011;38179;52.756;6.906;2023-06-10T01:49:34;20.60;;;18.58;;
52210;SDS011;38179;52.756;6.906;2023-06-10T01:52:00;20.17;;;18.58;;
52210;SDS011;38179;52.756;6.906;2023-06-10T01:54:26;20.90;;;18.80;;
52210;SDS011;38179;52.756;6.906;2023-06-10T01:56:52;21.45;;;19.35;;
52210;SDS011;38179;52.756;6.906;2023-06-10T01:59:18;21.10;;;18.77;;
52210;SDS011;38179;52.756;6.906;2023-06-10T02:01:44;20.83;;;19.05;;
52210;SDS011;38179;52.756;6.906;2023-06-10T02:04:09;20.90;;;18.92;;
52210;SDS011;38179;52.756;6.906;2023-06-10T02:06:36;21.30;;;19.30;;
52210;SDS011;38179;52.756;6.906;2023-06-10T02:09:02;21.67;;;19.77;;
52210;SDS011;38179;52.756;6.906;2023-06-10T02:11:28;21.63;;;19.52;;
52210;SDS011;38179;52.756;6.906;2023-06-10T02:13:54;22.20;;;20.10;;
52210;SDS011;38179;52.756;6.906;2023-06-10T02:16:20;21.63;;;19.73;;
52210;SDS011;38179;52.756;6.906;2023-06-10T02:18:46;22.08;;;20.27;;
52210;SDS011;38179;52.756;6.906;2023-06-10T02:21:13;21.77;;;19.65;;
52210;SDS011;38179;52.756;6.906;2023-06-10T02:23:39;21.25;;;19.27;;
52210;SDS011;38179;52.756;6.906;2023-06-10T02:26:05;21.95;;;19.67;;
52210;SDS011;38179;52.756;6.906;2023-06-10T02:28:31;21.92;;;19.70;;
52210;SDS011;38179;52.756;6.906;2023-06-10T02:30:57;20.95;;;18.92;;
52210;SDS011;38179;52.756;6.906;2023-06-10T02:33:24;21.38;;;19.35;;
52210;SDS011;38179;52.756;6.906;2023-06-10T02:35:50;20.67;;;18.85;;
52210;SDS011;38179;52.756;6.906;2023-06-10T02:38:16;21.10;;;19.20;;
52210;SDS011;38179;52.756;6.906;2023-06-10T02:40:42;20.80;;;18.95;;
52210;SDS011;38179;52.756;6.906;2023-06-10T02:43:08;22.42;;;19.90;;
52210;SDS011;38179;52.756;6.906;2023-06-10T02:45:34;20.38;;;18.48;;
52210;SDS011;38179;52.756;6.906;2023-06-10T02:48:00;21.60;;;19.60;;
52210;SDS011;38179;52.756;6.906;2023-06-10T02:50:26;21.60;;;19.70;;
52210;SDS011;38179;52.756;6.906;2023-06-10T02:52:52;23.05;;;20.00;;
52210;SDS011;38179;52.756;6.906;2023-06-10T02:55:18;21.00;;;19.00;;
52210;SDS011;38179;52.756;6.906;2023-06-10T02:57:44;21.45;;;19.10;;
52210;SDS011;38179;52.756;6.906;2023-06-10T03:00:10;23.20;;;20.00;;
52210;SDS011;38179;52.756;6.906;2023-06-10T03:02:37;22.00;;;18.75;;
52210;SDS011;38179;52.756;6.906;2023-06-10T03:05:04;21.88;;;19.63;;
52210;SDS011;38179;52.756;6.906;2023-06-10T03:07:30;22.02;;;19.88;;
52210;SDS011;38179;52.756;6.906;2023-06-10T03:09:57;21.23;;;19.23;;
52210;SDS011;38179;52.756;6.906;2023-06-10T03:12:23;21.85;;;19.63;;
52210;SDS011;38179;52.756;6.906;2023-06-10T03:14:49;20.73;;;18.70;;
52210;SDS011;38179;52.756;6.906;2023-06-10T03:17:14;20.83;;;18.85;;
52210;SDS011;38179;52.756;6.906;2023-06-10T03:19:40;20.35;;;18.25;;
52210;SDS011;38179;52.756;6.906;2023-06-10T03:22:07;20.42;;;18.52;;
52210;SDS011;38179;52.756;6.906;2023-06-10T03:24:37;20.52;;;18.35;;
52210;SDS011;38179;52.756;6.906;2023-06-10T03:27:08;21.35;;;19.30;;
52210;SDS011;38179;52.756;6.906;2023-06-10T03:29:35;20.98;;;18.98;;
52210;SDS011;38179;52.756;6.906;2023-06-10T03:32:01;20.88;;;18.77;;
52210;SDS011;38179;52.756;6.906;2023-06-10T03:34:27;21.23;;;19.10;;
52210;SDS011;38179;52.756;6.906;2023-06-10T03:36:53;21.00;;;19.02;;
52210;SDS011;38179;52.756;6.906;2023-06-10T03:39:19;20.90;;;19.02;;
52210;SDS011;38179;52.756;6.906;2023-06-10T03:41:45;21.02;;;18.90;;
52210;SDS011;38179;52.756;6.906;2023-06-10T03:44:10;20.08;;;18.23;;
52210;SDS011;38179;52.756;6.906;2023-06-10T03:46:36;20.88;;;18.85;;
52210;SDS011;38179;52.756;6.906;2023-06-10T03:49:02;20.23;;;18.42;;
52210;SDS011;38179;52.756;6.906;2023-06-10T03:51:29;20.48;;;18.33;;
52210;SDS011;38179;52.756;6.906;2023-06-10T03:53:55;20.27;;;18.33;;
52210;SDS011;38179;52.756;6.906;2023-06-10T03:56:21;19.83;;;18.02;;
52210;SDS011;38179;52.756;6.906;2023-06-10T03:58:46;20.70;;;18.45;;
52210;SDS011;38179;52.756;6.906;2023-06-10T04:01:12;19.45;;;17.60;;
52210;SDS011;38179;52.756;6.906;2023-06-10T04:03:38;19.98;;;18.10;;
52210;SDS011;38179;52.756;6.906;2023-06-10T04:06:06;20.60;;;18.60;;
52210;SDS011;38179;52.756;6.906;2023-06-10T04:08:32;20.05;;;18.25;;
52210;SDS011;38179;52.756;6.906;2023-06-10T04:10:58;20.45;;;18.63;;
52210;SDS011;38179;52.756;6.906;2023-06-10T04:13:24;19.98;;;17.92;;
52210;SDS011;38179;52.756;6.906;2023-06-10T04:15:51;20.15;;;18.30;;
52210;SDS011;38179;52.756;6.906;2023-06-10T04:18:17;20.33;;;18.38;;
52210;SDS011;38179;52.756;6.906;2023-06-10T04:20:43;19.73;;;17.73;;
52210;SDS011;38179;52.756;6.906;2023-06-10T04:23:10;19.90;;;17.98;;
52210;SDS011;38179;52.756;6.906;2023-06-10T04:25:35;19.83;;;17.77;;
52210;SDS011;38179;52.756;6.906;2023-06-10T04:28:01;19.33;;;17.55;;
52210;SDS011;38179;52.756;6.906;2023-06-10T04:30:28;19.02;;;17.23;;
52210;SDS011;38179;52.756;6.906;2023-06-10T04:32:54;20.73;;;18.58;;
52210;SDS011;38179;52.756;6.906;2023-06-10T04:35:19;20.80;;;18.13;;
52210;SDS011;38179;52.756;6.906;2023-06-10T04:37:45;19.65;;;17.85;;
52210;SDS011;38179;52.756;6.906;2023-06-10T04:40:11;20.48;;;18.45;;
52210;SDS011;38179;52.756;6.906;2023-06-10T04:42:37;20.25;;;18.15;;
52210;SDS011;38179;52.756;6.906;2023-06-10T04:45:03;18.88;;;17.05;;
52210;SDS011;38179;52.756;6.906;2023-06-10T04:47:29;19.67;;;17.67;;
52210;SDS011;38179;52.756;6.906;2023-06-10T04:49:59;19.98;;;18.05;;
52210;SDS011;38179;52.756;6.906;2023-06-10T04:52:25;19.77;;;17.80;;
52210;SDS011;38179;52.756;6.906;2023-06-10T04:54:51;20.23;;;18.33;;
52210;SDS011;38179;52.756;6.906;2023-06-10T04:57:18;20.63;;;18.63;;
52210;SDS011;38179;52.756;6.906;2023-06-10T04:59:45;18.77;;;17.02;;
52210;SDS011;38179;52.756;6.906;2023-06-10T05:02:11;20.80;;;18.70;;
52210;SDS011;38179;52.756;6.906;2023-06-10T05:04:37;19.70;;;17.80;;
52210;SDS011;38179;52.756;6.906;2023-06-10T05:07:03;23.25;;;19.23;;
52210;SDS011;38179;52.756;6.906;2023-06-10T05:09:30;19.42;;;17.73;;
52210;SDS011;38179;52.756;6.906;2023-06-10T05:11:56;21.42;;;17.88;;
52210;SDS011;38179;52.756;6.906;2023-06-10T05:14:21;20.52;;;18.73;;
52210;SDS011;38179;52.756;6.906;2023-06-10T05:16:48;19.70;;;17.75;;
52210;SDS011;38179;52.756;6.906;2023-06-10T05:19:14;19.85;;;17.83;;
52210;SDS011;38179;52.756;6.906;2023-06-10T05:21:41;19.95;;;18.05;;
52210;SDS011;38179;52.756;6.906;2023-06-10T05:24:07;20.90;;;18.80;;
52210;SDS011;38179;52.756;6.906;2023-06-10T05:26:33;21.17;;;18.17;;
52210;SDS011;38179;52.756;6.906;2023-06-10T05:31:28;20.63;;;18.55;;
52210;SDS011;38179;52.756;6.906;2023-06-10T05:33:54;21.45;;;18.05;;
52210;SDS011;38179;52.756;6.906;2023-06-10T05:36:20;19.88;;;17.98;;
52210;SDS011;38179;52.756;6.906;2023-06-10T05:38:46;20.52;;;18.52;;
52210;SDS011;38179;52.756;6.906;2023-06-10T05:41:12;20.75;;;18.67;;
52210;SDS011;38179;52.756;6.906;2023-06-10T05:43:38;20.27;;;18.15;;
52210;SDS011;38179;52.756;6.906;2023-06-10T05:46:04;19.52;;;17.50;;
52210;SDS011;38179;52.756;6.906;2023-06-10T05:48:30;19.88;;;17.92;;
52210;SDS011;38179;52.756;6.906;2023-06-10T05:50:55;21.05;;;18.85;;
52210;SDS011;38179;52.756;6.906;2023-06-10T05:53:21;19.88;;;18.10;;
52210;SDS011;38179;52.756;6.906;2023-06-10T05:55:50;20.30;;;18.13;;
52210;SDS011;38179;52.756;6.906;2023-06-10T05:58:17;21.25;;;19.25;;
52210;SDS011;38179;52.756;6.906;2023-06-10T06:03:13;21.50;;;18.50;;
52210;SDS011;38179;52.756;6.906;2023-06-10T06:05:39;19.58;;;17.70;;
52210;SDS011;38179;52.756;6.906;2023-06-10T06:08:05;20.55;;;18.17;;
52210;SDS011;38179;52.756;6.906;2023-06-10T06:10:31;18.80;;;17.13;;
52210;SDS011;38179;52.756;6.906;2023-06-10T06:12:57;19.92;;;18.08;;
52210;SDS011;38179;52.756;6.906;2023-06-10T06:15:23;19.98;;;18.17;;
52210;SDS011;38179;52.756;6.906;2023-06-10T06:17:49;20.17;;;18.08;;
52210;SDS011;38179;52.756;6.906;2023-06-10T06:20:18;20.95;;;18.85;;
52210;SDS011;38179;52.756;6.906;2023-06-10T06:22:47;21.05;;;18.95;;
52210;SDS011;38179;52.756;6.906;2023-06-10T06:25:13;20.63;;;18.52;;
52210;SDS011;38179;52.756;6.906;2023-06-10T06:27:39;20.13;;;18.23;;
52210;SDS011;38179;52.756;6.906;2023-06-10T06:30:05;20.85;;;18.67;;
52210;SDS011;38179;52.756;6.906;2023-06-10T06:32:32;20.00;;;18.27;;
52210;SDS011;38179;52.756;6.906;2023-06-10T06:34:58;19.63;;;17.70;;
52210;SDS011;38179;52.756;6.906;2023-06-10T06:37:24;20.73;;;18.25;;
52210;SDS011;38179;52.756;6.906;2023-06-10T06:39:51;20.83;;;18.90;;
52210;SDS011;38179;52.756;6.906;2023-06-10T06:42:18;21.10;;;18.98;;
52210;SDS011;38179;52.756;6.906;2023-06-10T06:44:44;19.70;;;17.90;;
52210;SDS011;38179;52.756;6.906;2023-06-10T06:47:10;20.83;;;18.98;;
52210;SDS011;38179;52.756;6.906;2023-06-10T06:49:36;20.35;;;18.45;;
52210;SDS011;38179;52.756;6.906;2023-06-10T06:52:02;20.13;;;18.23;;
52210;SDS011;38179;52.756;6.906;2023-06-10T06:54:28;19.92;;;18.02;;
52210;SDS011;38179;52.756;6.906;2023-06-10T06:56:55;18.98;;;17.30;;
52210;SDS011;38179;52.756;6.906;2023-06-10T06:59:22;20.00;;;18.10;;
52210;SDS011;38179;52.756;6.906;2023-06-10T07:01:50;20.73;;;18.73;;
52210;SDS011;38179;52.756;6.906;2023-06-10T07:04:16;21.58;;;18.48;;
52210;SDS011;38179;52.756;6.906;2023-06-10T07:06:44;21.47;;;18.70;;
52210;SDS011;38179;52.756;6.906;2023-06-10T07:09:10;20.55;;;18.55;;
52210;SDS011;38179;52.756;6.906;2023-06-10T07:11:36;20.95;;;19.08;;
52210;SDS011;38179;52.756;6.906;2023-06-10T07:14:02;21.05;;;19.00;;
52210;SDS011;38179;52.756;6.906;2023-06-10T07:16:28;21.42;;;19.42;;
52210;SDS011;38179;52.756;6.906;2023-06-10T07:18:54;21.33;;;18.98;;
52210;SDS011;38179;52.756;6.906;2023-06-10T07:21:20;20.52;;;18.63;;
52210;SDS011;38179;52.756;6.906;2023-06-10T07:23:46;21.33;;;19.33;;
52210;SDS011;38179;52.756;6.906;2023-06-10T07:26:12;20.85;;;18.98;;
52210;SDS011;38179;52.756;6.906;2023-06-10T07:28:41;21.75;;;19.63;;
52210;SDS011;38179;52.756;6.906;2023-06-10T07:31:07;21.45;;;19.17;;
52210;SDS011;38179;52.756;6.906;2023-06-10T07:33:33;21.88;;;19.88;;
52210;SDS011;38179;52.756;6.906;2023-06-10T07:35:59;20.95;;;19.10;;
52210;SDS011;38179;52.756;6.906;2023-06-10T07:38:25;20.77;;;18.83;;
52210;SDS011;38179;52.756;6.906;2023-06-10T07:40:52;19.42;;;17.52;;
52210;SDS011;38179;52.756;6.906;2023-06-10T07:43:19;20.73;;;18.90;;
52210;SDS011;38179;52.756;6.906;2023-06-10T07:45:45;21.10;;;19.00;;
52210;SDS011;38179;52.756;6.906;2023-06-10T07:48:10;21.17;;;19.27;;
52210;SDS011;38179;52.756;6.906;2023-06-10T07:50:36;21.88;;;19.88;;
52210;SDS011;38179;52.756;6.906;2023-06-10T07:53:02;21.40;;;19.40;;
52210;SDS011;38179;52.756;6.906;2023-06-10T07:55:29;22.40;;;20.17;;
52210;SDS011;38179;52.756;6.906;2023-06-10T07:57:55;20.52;;;18.63;;
52210;SDS011;38179;52.756;6.906;2023-06-10T08:00:21;21.98;;;19.98;;
52210;SDS011;38179;52.756;6.906;2023-06-10T08:02:48;22.50;;;20.02;;
52210;SDS011;38179;52.756;6.906;2023-06-10T08:05:14;22.52;;;20.40;;
52210;SDS011;38179;52.756;6.906;2023-06-10T08:07:40;23.00;;;20.85;;
52210;SDS011;38179;52.756;6.906;2023-06-10T08:10:06;23.00;;;20.83;;
52210;SDS011;38179;52.756;6.906;2023-06-10T08:12:33;23.05;;;20.80;;
52210;SDS011;38179;52.756;6.906;2023-06-10T08:14:59;23.05;;;20.98;;
52210;SDS011;38179;52.756;6.906;2023-06-10T08:17:25;23.15;;;20.95;;
52210;SDS011;38179;52.756;6.906;2023-06-10T08:19:51;23.83;;;21.70;;
52210;SDS011;38179;52.756;6.906;2023-06-10T08:22:17;22.67;;;20.67;;
52210;SDS011;38179;52.756;6.906;2023-06-10T08:24:43;24.23;;;22.02;;
52210;SDS011;38179;52.756;6.906;2023-06-10T08:27:09;25.60;;;23.10;;
52210;SDS011;38179;52.756;6.906;2023-06-10T08:29:35;25.67;;;23.08;;
52210;SDS011;38179;52.756;6.906;2023-06-10T08:32:01;24.45;;;22.25;;
52210;SDS011;38179;52.756;6.906;2023-06-10T08:34:28;24.58;;;22.27;;
52210;SDS011;38179;52.756;6.906;2023-06-10T08:36:53;25.25;;;22.95;;
52210;SDS011;38179;52.756;6.906;2023-06-10T08:39:21;25.45;;;23.05;;
52210;SDS011;38179;52.756;6.906;2023-06-10T08:42:32;26.38;;;23.98;;
52210;SDS011;38179;52.756;6.906;2023-06-10T08:44:45;26.08;;;23.85;;
52210;SDS011;38179;52.756;6.906;2023-06-10T08:47:15;25.83;;;23.48;;
52210;SDS011;38179;52.756;6.906;2023-06-10T08:49:45;24.98;;;22.70;;
52210;SDS011;38179;52.756;6.906;2023-06-10T08:52:15;25.45;;;23.08;;
52210;SDS011;38179;52.756;6.906;2023-06-10T08:57:17;22.13;;;20.33;;
52210;SDS011;38179;52.756;6.906;2023-06-10T08:59:46;24.23;;;21.83;;
52210;SDS011;38179;52.756;6.906;2023-06-10T09:02:11;24.65;;;22.27;;
52210;SDS011;38179;52.756;6.906;2023-06-10T09:04:41;24.63;;;22.42;;
52210;SDS011;38179;52.756;6.906;2023-06-10T09:07:09;23.77;;;21.48;;
52210;SDS011;38179;52.756;6.906;2023-06-10T09:09:36;24.85;;;22.65;;
52210;SDS011;38179;52.756;6.906;2023-06-10T09:12:02;23.65;;;21.73;;
52210;SDS011;38179;52.756;6.906;2023-06-10T09:14:28;24.02;;;22.02;;
52210;SDS011;38179;52.756;6.906;2023-06-10T09:16:54;23.92;;;21.73;;
52210;SDS011;38179;52.756;6.906;2023-06-10T09:19:24;23.73;;;21.42;;
52210;SDS011;38179;52.756;6.906;2023-06-10T09:21:52;22.48;;;20.58;;
52210;SDS011;38179;52.756;6.906;2023-06-10T09:24:18;23.45;;;21.45;;
52210;SDS011;38179;52.756;6.906;2023-06-10T09:26:44;23.30;;;21.38;;
52210;SDS011;38179;52.756;6.906;2023-06-10T09:29:11;23.65;;;21.63;;
52210;SDS011;38179;52.756;6.906;2023-06-10T09:31:39;23.95;;;21.83;;
52210;SDS011;38179;52.756;6.906;2023-06-10T09:34:09;23.20;;;21.02;;
52210;SDS011;38179;52.756;6.906;2023-06-10T09:36:36;23.95;;;21.52;;
52210;SDS011;38179;52.756;6.906;2023-06-10T09:39:03;23.25;;;21.27;;
52210;SDS011;38179;52.756;6.906;2023-06-10T09:41:39;23.45;;;21.48;;
52210;SDS011;38179;52.756;6.906;2023-06-10T09:44:18;22.30;;;20.30;;
52210;SDS011;38179;52.756;6.906;2023-06-10T09:46:46;22.00;;;20.17;;
52210;SDS011;38179;52.756;6.906;2023-06-10T09:49:13;21.23;;;19.50;;
52210;SDS011;38179;52.756;6.906;2023-06-10T09:51:52;21.50;;;19.70;;
52210;SDS011;38179;52.756;6.906;2023-06-10T09:54:22;21.73;;;19.83;;
52210;SDS011;38179;52.756;6.906;2023-06-10T09:56:48;22.38;;;20.50;;
52210;SDS011;38179;52.756;6.906;2023-06-10T09:59:16;22.38;;;20.42;;
52210;SDS011;38179;52.756;6.906;2023-06-10T10:01:55;21.38;;;19.67;;
52210;SDS011;38179;52.756;6.906;2023-06-10T10:04:24;22.23;;;20.42;;
52210;SDS011;38179;52.756;6.906;2023-06-10T10:06:50;22.00;;;20.13;;
52210;SDS011;38179;52.756;6.906;2023-06-10T10:09:16;23.55;;;20.90;;
52210;SDS011;38179;52.756;6.906;2023-06-10T10:11:43;22.00;;;20.23;;
52210;SDS011;38179;52.756;6.906;2023-06-10T10:14:09;21.65;;;19.95;;
52210;SDS011;38179;52.756;6.906;2023-06-10T10:16:37;21.55;;;19.92;;
52210;SDS011;38179;52.756;6.906;2023-06-10T10:19:40;21.45;;;19.65;;
52210;SDS011;38179;52.756;6.906;2023-06-10T10:22:04;20.77;;;19.17;;
52210;SDS011;38179;52.756;6.906;2023-06-10T10:24:36;20.70;;;19.10;;
52210;SDS011;38179;52.756;6.906;2023-06-10T10:27:11;21.08;;;19.48;;
52210;SDS011;38179;52.756;6.906;2023-06-10T10:29:42;21.67;;;19.73;;
52210;SDS011;38179;52.756;6.906;2023-06-10T10:32:13;21.35;;;19.60;;
52210;SDS011;38179;52.756;6.906;2023-06-10T10:37:27;21.13;;;19.52;;
52210;SDS011;38179;52.756;6.906;2023-06-10T10:39:54;21.30;;;19.70;;
52210;SDS011;38179;52.756;6.906;2023-06-10T10:42:21;21.02;;;19.33;;
52210;SDS011;38179;52.756;6.906;2023-06-10T10:44:47;21.50;;;19.63;;
52210;SDS011;38179;52.756;6.906;2023-06-10T10:47:16;21.58;;;19.88;;
52210;SDS011;38179;52.756;6.906;2023-06-10T10:49:47;21.88;;;19.88;;
52210;SDS011;38179;52.756;6.906;2023-06-10T10:52:16;21.77;;;19.98;;
52210;SDS011;38179;52.756;6.906;2023-06-10T10:54:45;21.27;;;19.48;;
52210;SDS011;38179;52.756;6.906;2023-06-10T10:57:13;22.58;;;20.38;;
52210;SDS011;38179;52.756;6.906;2023-06-10T11:02:34;21.23;;;19.52;;
52210;SDS011;38179;52.756;6.906;2023-06-10T11:05:12;20.95;;;19.45;;
52210;SDS011;38179;52.756;6.906;2023-06-10T11:08:00;21.38;;;19.52;;
52210;SDS011;38179;52.756;6.906;2023-06-10T11:10:30;21.38;;;19.67;;
52210;SDS011;38179;52.756;6.906;2023-06-10T11:12:57;21.27;;;19.67;;
52210;SDS011;38179;52.756;6.906;2023-06-10T11:15:25;21.48;;;19.77;;
52210;SDS011;38179;52.756;6.906;2023-06-10T11:18:08;21.55;;;19.50;;
52210;SDS011;38179;52.756;6.906;2023-06-10T11:23:32;21.42;;;19.67;;
52210;SDS011;38179;52.756;6.906;2023-06-10T11:26:12;20.52;;;19.10;;
52210;SDS011;38179;52.756;6.906;2023-06-10T11:33:52;21.05;;;19.45;;
52210;SDS011;38179;52.756;6.906;2023-06-10T11:36:19;20.77;;;19.17;;
52210;SDS011;38179;52.756;6.906;2023-06-10T11:38:45;20.67;;;18.92;;
52210;SDS011;38179;52.756;6.906;2023-06-10T11:41:13;21.55;;;19.90;;
52210;SDS011;38179;52.756;6.906;2023-06-10T11:43:42;21.95;;;20.10;;
52210;SDS011;38179;52.756;6.906;2023-06-10T11:46:12;21.27;;;19.50;;
52210;SDS011;38179;52.756;6.906;2023-06-10T11:48:39;21.75;;;19.95;;
52210;SDS011;38179;52.756;6.906;2023-06-10T11:51:15;20.85;;;19.35;;
52210;SDS011;38179;52.756;6.906;2023-06-10T11:53:43;21.90;;;20.05;;
52210;SDS011;38179;52.756;6.906;2023-06-10T11:56:10;21.58;;;19.98;;
52210;SDS011;38179;52.756;6.906;2023-06-10T11:58:36;21.42;;;19.77;;
52210;SDS011;38179;52.756;6.906;2023-06-10T12:01:01;21.42;;;19.65;;
52210;SDS011;38179;52.756;6.906;2023-06-10T12:03:35;21.63;;;19.85;;
52210;SDS011;38179;52.756;6.906;2023-06-10T12:06:03;21.35;;;19.73;;
52210;SDS011;38179;52.756;6.906;2023-06-10T12:08:30;21.08;;;19.48;;
52210;SDS011;38179;52.756;6.906;2023-06-10T12:10:57;21.58;;;19.75;;
52210;SDS011;38179;52.756;6.906;2023-06-10T12:13:27;21.88;;;20.13;;
52210;SDS011;38179;52.756;6.906;2023-06-10T12:15:53;22.45;;;20.75;;
52210;SDS011;38179;52.756;6.906;2023-06-10T12:18:19;21.27;;;19.67;;
52210;SDS011;38179;52.756;6.906;2023-06-10T12:20:46;21.38;;;19.75;;
52210;SDS011;38179;52.756;6.906;2023-06-10T12:23:15;21.38;;;19.77;;
52210;SDS011;38179;52.756;6.906;2023-06-10T12:25:54;21.17;;;19.58;;
52210;SDS011;38179;52.756;6.906;2023-06-10T12:28:24;22.20;;;20.25;;
52210;SDS011;38179;52.756;6.906;2023-06-10T12:30:51;21.85;;;20.15;;
52210;SDS011;38179;52.756;6.906;2023-06-10T12:33:33;21.88;;;20.17;;
52210;SDS011;38179;52.756;6.906;2023-06-10T12:35:58;21.73;;;20.08;;
52210;SDS011;38179;52.756;6.906;2023-06-10T12:38:25;21.95;;;20.35;;
52210;SDS011;38179;52.756;6.906;2023-06-10T12:41:00;21.45;;;19.95;;
52210;SDS011;38179;52.756;6.906;2023-06-10T12:43:27;22.05;;;20.50;;
52210;SDS011;38179;52.756;6.906;2023-06-10T12:45:53;22.25;;;20.58;;
52210;SDS011;38179;52.756;6.906;2023-06-10T12:48:20;22.13;;;20.50;;
52210;SDS011;38179;52.756;6.906;2023-06-10T12:51:05;22.67;;;20.92;;
52210;SDS011;38179;52.756;6.906;2023-06-10T12:53:31;23.10;;;21.40;;
52210;SDS011;38179;52.756;6.906;2023-06-10T12:55:57;22.35;;;20.65;;
52210;SDS011;38179;52.756;6.906;2023-06-10T12:58:24;22.48;;;20.67;;
52210;SDS011;38179;52.756;6.906;2023-06-10T13:00:50;22.90;;;21.20;;
52210;SDS011;38179;52.756;6.906;2023-06-10T13:03:18;23.42;;;21.63;;
52210;SDS011;38179;52.756;6.906;2023-06-10T13:05:43;22.38;;;20.67;;
52210;SDS011;38179;52.756;6.906;2023-06-10T13:11:01;22.98;;;21.20;;
52210;SDS011;38179;52.756;6.906;2023-06-10T13:13:27;22.50;;;20.83;;
52210;SDS011;38179;52.756;6.906;2023-06-10T13:15:54;22.15;;;20.40;;
52210;SDS011;38179;52.756;6.906;2023-06-10T13:18:19;22.52;;;20.92;;
52210;SDS011;38179;52.756;6.906;2023-06-10T13:20:45;23.00;;;21.30;;
52210;SDS011;38179;52.756;6.906;2023-06-10T13:23:11;22.80;;;21.00;;
52210;SDS011;38179;52.756;6.906;2023-06-10T13:25:37;22.70;;;21.10;;
52210;SDS011;38179;52.756;6.906;2023-06-10T13:28:03;22.65;;;20.95;;
52210;SDS011;38179;52.756;6.906;2023-06-10T13:30:29;23.40;;;21.50;;
52210;SDS011;38179;52.756;6.906;2023-06-10T13:32:55;23.23;;;21.33;;
52210;SDS011;38179;52.756;6.906;2023-06-10T13:35:21;23.08;;;21.20;;
52210;SDS011;38179;52.756;6.906;2023-06-10T13:37:47;22.85;;;21.15;;
52210;SDS011;38179;52.756;6.906;2023-06-10T13:40:12;23.30;;;21.50;;
52210;SDS011;38179;52.756;6.906;2023-06-10T13:42:38;22.73;;;21.13;;
52210;SDS011;38179;52.756;6.906;2023-06-10T13:45:04;23.05;;;21.45;;
52210;SDS011;38179;52.756;6.906;2023-06-10T13:47:31;23.65;;;21.95;;
52210;SDS011;38179;52.756;6.906;2023-06-10T13:49:57;23.50;;;21.60;;
52210;SDS011;38179;52.756;6.906;2023-06-10T13:52:23;24.65;;;22.75;;
52210;SDS011;38179;52.756;6.906;2023-06-10T13:54:49;24.60;;;22.25;;
52210;SDS011;38179;52.756;6.906;2023-06-10T13:57:15;24.13;;;22.33;;
52210;SDS011;38179;52.756;6.906;2023-06-10T13:59:41;23.85;;;22.08;;
52210;SDS011;38179;52.756;6.906;2023-06-10T14:02:07;23.75;;;21.85;;
52210;SDS011;38179;52.756;6.906;2023-06-10T14:04:32;23.58;;;21.67;;
52210;SDS011;38179;52.756;6.906;2023-06-10T14:06:58;24.13;;;22.23;;
52210;SDS011;38179;52.756;6.906;2023-06-10T14:09:24;23.60;;;21.90;;
52210;SDS011;38179;52.756;6.906;2023-06-10T14:11:50;23.23;;;21.63;;
52210;SDS011;38179;52.756;6.906;2023-06-10T14:14:17;23.55;;;21.85;;
52210;SDS011;38179;52.756;6.906;2023-06-10T14:16:44;23.70;;;21.98;;
52210;SDS011;38179;52.756;6.906;2023-06-10T14:19:10;24.20;;;22.38;;
52210;SDS011;38179;52.756;6.906;2023-06-10T14:21:36;24.23;;;22.52;;
52210;SDS011;38179;52.756;6.906;2023-06-10T14:24:02;23.63;;;21.70;;
52210;SDS011;38179;52.756;6.906;2023-06-10T14:26:27;23.90;;;22.10;;
52210;SDS011;38179;52.756;6.906;2023-06-10T14:28:53;24.00;;;22.02;;
52210;SDS011;38179;52.756;6.906;2023-06-10T14:31:19;23.58;;;21.67;;
52210;SDS011;38179;52.756;6.906;2023-06-10T14:33:45;23.77;;;21.77;;
52210;SDS011;38179;52.756;6.906;2023-06-10T14:36:11;23.55;;;21.85;;
52210;SDS011;38179;52.756;6.906;2023-06-10T14:38:37;22.42;;;20.83;;
52210;SDS011;38179;52.756;6.906;2023-06-10T14:41:03;22.83;;;21.20;;
52210;SDS011;38179;52.756;6.906;2023-06-10T14:43:28;23.15;;;21.55;;
52210;SDS011;38179;52.756;6.906;2023-06-10T14:45:54;23.10;;;21.40;;
52210;SDS011;38179;52.756;6.906;2023-06-10T14:48:21;22.85;;;21.25;;
52210;SDS011;38179;52.756;6.906;2023-06-10T14:50:47;23.15;;;21.45;;
52210;SDS011;38179;52.756;6.906;2023-06-10T14:53:19;23.05;;;21.45;;